Time;durP1;ratioP1;P1;durP2;ratioP2;P2;SDS_P1;SDS_P2;PMS_P1;PMS_P2;Temp;Humidity;BMP_temperature;BMP_pressure;BME280_temperature;BME280_humidity;BME280_pressure;Samples;Min_cycle;Max_cycle;Signal;HPM_P1;HPM_P2
2022/10/12 00:02:08;;;;;;;2.70;2.40;;;;;;;;;;494466;241;26237;-80
2022/10/12 00:04:18;;;;;;;3.85;2.30;;;;;;;;;;494289;241;26303;-80
2022/10/12 00:06:28;;;;;;;1.90;1.80;;;;;;;;;;494277;241;26316;-80
2022/10/12 00:08:37;;;;;;;3.80;2.47;;;;;;;;;;494417;241;26245;-79
2022/10/12 00:10:49;;;;;;;2.58;2.15;;;;;;;;;;494498;241;26867;-80
2022/10/12 00:12:57;;;;;;;2.80;2.60;;;;;;;;;;494146;237;26303;-80
2022/10/12 00:15:05;;;;;;;2.42;2.22;;;;;;;;;;494466;241;26225;-81
2022/10/12 00:17:15;;;;;;;2.50;2.08;;;;;;;;;;494243;241;26244;-80
2022/10/12 00:19:22;;;;;;;2.10;1.90;;;;;;;;;;494322;241;26797;-80
2022/10/12 00:21:30;;;;;;;5.47;2.08;;;;;;;;;;494295;241;26726;-80
2022/10/12 00:23:32;;;;;;;2.47;2.28;;;5.90;99.90;;;;;;494299;241;26229;-81
2022/10/12 00:25:41;;;;;;;2.40;2.20;;;;;;;;;;494318;241;27361;-80
2022/10/12 00:27:50;;;;;;;2.33;2.12;;;;;;;;;;494242;241;26816;-80
2022/10/12 00:29:58;;;;;;;2.50;2.30;;;;;;;;;;494274;238;26241;-79
2022/10/12 00:32:04;;;;;;;2.00;1.90;;;;;;;;;;494310;241;26233;-80
2022/10/12 00:34:12;;;;;;;2.03;1.92;;;;;;;;;;494449;241;26259;-80
2022/10/12 00:36:17;;;;;;;2.28;2.10;;;;;;;;;;494374;241;26223;-79
2022/10/12 00:38:22;;;;;;;2.28;1.90;;;6.00;99.90;;;;;;494320;237;26232;-80
2022/10/12 00:40:31;;;;;;;2.22;2.12;;;;;;;;;;494301;241;26240;-80
2022/10/12 00:42:39;;;;;;;3.85;2.30;;;;;;;;;;494289;241;26236;-81
2022/10/12 00:44:47;;;;;;;1.80;1.70;;;;;;;;;;494296;241;26718;-80
2022/10/12 00:46:53;;;;;;;2.30;2.12;;;;;;;;;;494190;241;26887;-80
2022/10/12 00:49:02;;;;;;;3.45;2.20;;;;;;;;;;494304;241;26241;-80
2022/10/12 00:51:07;;;;;;;4.03;2.22;;;;;;;;;;494468;241;26736;-80
2022/10/12 00:53:13;;;;;;;4.85;2.20;;;;;;;;;;494456;241;26762;-81
2022/10/12 00:55:19;;;;;;;2.22;2.00;;;;;;;;;;494465;241;26327;-81
2022/10/12 00:57:27;;;;;;;3.60;2.35;;;;;;;;;;494242;241;26701;-80
2022/10/12 00:59:32;;;;;;;2.05;1.92;;;;;;;;;;494441;240;26260;-80
2022/10/12 01:01:39;;;;;;;2.67;2.20;;;;;;;;;;494474;241;26232;-80
2022/10/12 01:03:44;;;;;;;2.60;1.98;;;;;;;;;;494461;237;26882;-81
2022/10/12 01:05:50;;;;;;;4.72;2.10;;;;;;;;;;494311;237;26236;-79
2022/10/12 01:07:55;;;;;;;1.85;1.73;;;;;;;;;;494315;237;26256;-80
2022/10/12 01:10:03;;;;;;;2.55;1.95;;;;;;;;;;494486;237;26245;-79
2022/10/12 01:12:10;;;;;;;2.30;2.10;;;;;;;;;;494394;240;26201;-80
2022/10/12 01:14:15;;;;;;;2.25;2.05;;;;;;;;;;494452;241;26225;-80
2022/10/12 01:16:21;;;;;;;2.35;2.15;;;;;;;;;;494260;237;26762;-81
2022/10/12 01:18:24;;;;;;;2.40;2.20;;;;;;;;;;494460;241;26242;-80
2022/10/12 01:20:32;;;;;;;2.40;2.20;;;;;;;;;;494369;241;26714;-80
2022/10/12 01:22:37;;;;;;;2.22;2.03;;;;;;;;;;494324;241;26240;-79
2022/10/12 01:24:41;;;;;;;4.87;2.35;;;;;;;;;;494292;241;26711;-81
2022/10/12 01:26:48;;;;;;;2.30;2.10;;;;;;;;;;494383;237;26225;-81
2022/10/12 01:28:54;;;;;;;2.25;2.05;;;;;;;;;;494301;241;26241;-80
2022/10/12 01:31:01;;;;;;;2.22;2.00;;;;;;;;;;494306;241;26250;-81
2022/10/12 01:33:06;;;;;;;1.90;1.80;;;;;;;;;;494473;241;26261;-80
2022/10/12 01:35:11;;;;;;;3.00;2.12;;;;;;;;;;494312;241;26248;-79
2022/10/12 01:37:14;;;;;;;2.40;2.20;;;;;;;;;;494393;241;26362;-81
2022/10/12 01:39:21;;;;;;;2.12;2.00;;;;;;;;;;494442;241;26229;-80
2022/10/12 01:41:29;;;;;;;1.90;1.80;;;;;;;;;;494479;241;26250;-80
2022/10/12 01:43:34;;;;;;;2.00;1.90;;;;;;;;;;494443;241;26832;-80
2022/10/12 01:45:39;;;;;;;2.10;1.92;;;;;;;;;;494492;241;26255;-81
2022/10/12 01:47:47;;;;;;;2.00;1.90;;;;;;;;;;494423;241;26237;-80
2022/10/12 01:49:52;;;;;;;1.85;1.75;;;;;;;;;;494320;241;26249;-80
2022/10/12 01:51:58;;;;;;;2.10;2.00;;;;;;;;;;494313;241;26876;-80
2022/10/12 01:54:04;;;;;;;1.90;1.80;;;;;;;;;;494366;240;26319;-81
2022/10/12 01:56:10;;;;;;;2.08;1.98;;;;;;;;;;494320;241;26222;-79
2022/10/12 01:58:16;;;;;;;1.95;1.77;;;;;;;;;;494428;237;26320;-81
2022/10/12 02:00:22;;;;;;;1.80;1.70;;;;;;;;;;494291;241;26224;-79
2022/10/12 02:02:28;;;;;;;2.70;2.28;;;;;;;;;;494454;240;26202;-79
2022/10/12 02:04:32;;;;;;;1.85;1.75;;;;;;;;;;494441;241;26869;-81
2022/10/12 02:06:34;;;;;;;2.45;1.92;;;;;;;;;;494409;241;26772;-80
2022/10/12 02:08:37;;;;;;;2.20;2.00;;;;;;;;;;494455;238;26201;-80
2022/10/12 02:10:39;;;;;;;1.98;1.87;;;;;;;;;;494415;241;26738;-79
2022/10/12 02:12:41;;;;;;;2.78;2.08;;;;;;;;;;494287;239;26235;-81
2022/10/12 02:14:43;;;;;;;2.20;2.00;;;;;;;;;;494301;241;26316;-80
2022/10/12 02:16:45;;;;;;;3.53;2.20;;;;;;;;;;494229;241;26249;-80
2022/10/12 02:18:47;;;;;;;2.55;1.92;;;5.10;99.90;;;;;;494443;239;26237;-79
2022/10/12 02:20:50;;;;;;;2.70;1.83;;;;;;;;;;494444;241;27455;-81
2022/10/12 02:22:52;;;;;;;1.80;1.70;;;;;;;;;;494458;241;26237;-80
2022/10/12 02:24:56;;;;;;;3.55;2.08;;;;;;;;;;494299;240;26237;-80
2022/10/12 02:27:02;;;;;;;2.17;1.98;;;;;;;;;;494326;237;26254;-80
2022/10/12 02:29:06;;;;;;;2.10;1.95;;;;;;;;;;494355;241;26217;-81
2022/10/12 02:31:07;;;;;;;2.42;2.22;;;5.30;99.90;;;;;;494436;241;26246;-80
2022/10/12 02:33:08;;;;;;;2.55;1.98;;;5.30;99.90;;;;;;494292;240;27369;-80
2022/10/12 02:35:09;;;;;;;1.90;1.80;;;5.30;99.90;;;;;;494428;240;27442;-80
2022/10/12 02:37:11;;;;;;;1.95;1.85;;;5.30;99.90;;;;;;494361;241;27346;-79
2022/10/12 02:39:12;;;;;;;2.20;2.00;;;5.30;99.90;;;;;;494288;237;27950;-80
2022/10/12 02:41:16;;;;;;;2.12;1.90;;;;;;;;;;494293;241;27362;-80
2022/10/12 02:43:22;;;;;;;2.00;1.90;;;;;;;;;;494487;237;26257;-80
2022/10/12 02:45:28;;;;;;;2.00;1.90;;;;;;;;;;494447;241;26256;-80
2022/10/12 02:47:31;;;;;;;2.10;2.00;;;;;;;;;;494235;241;26773;-79
2022/10/12 02:49:34;;;;;;;2.33;2.10;;;;;;;;;;494311;241;26237;-80
2022/10/12 02:51:36;;;;;;;2.78;2.17;;;;;;;;;;494469;241;26241;-80
2022/10/12 02:53:41;;;;;;;2.00;1.90;;;;;;;;;;494468;237;26240;-80
2022/10/12 02:55:42;;;;;;;2.10;2.00;;;5.10;99.90;;;;;;494259;241;26308;-81
2022/10/12 02:57:43;;;;;;;2.00;1.83;;;5.10;99.90;;;;;;494227;241;27462;-80
2022/10/12 02:59:44;;;;;;;1.67;1.58;;;5.10;99.90;;;;;;494314;237;27556;-81
2022/10/12 03:01:46;;;;;;;3.50;2.17;;;5.10;99.90;;;;;;494463;241;27431;-80
2022/10/12 03:03:47;;;;;;;1.65;1.55;;;5.10;99.90;;;;;;494322;240;28417;-80
2022/10/12 03:05:48;;;;;;;2.10;2.00;;;5.10;99.90;;;;;;494418;241;28022;-80
2022/10/12 03:07:51;;;;;;;1.90;1.80;;;;;;;;;;494370;241;27950;-81
2022/10/12 03:09:52;;;;;;;1.90;1.80;;;5.20;99.90;;;;;;494296;241;26256;-79
2022/10/12 03:11:54;;;;;;;2.12;2.03;;;;;;;;;;494327;241;27436;-80
2022/10/12 03:13:56;;;;;;;2.00;1.90;;;;;;;;;;494348;241;26218;-80
2022/10/12 03:15:58;;;;;;;2.30;2.05;;;5.00;99.90;;;;;;494304;241;26248;-79
2022/10/12 03:18:00;;;;;;;1.92;1.83;;;;;;;;;;494248;241;27951;-80
2022/10/12 03:20:01;;;;;;;2.45;2.00;;;5.00;99.90;;;;;;494280;237;26866;-80
2022/10/12 03:22:04;;;;;;;1.90;1.80;;;5.00;99.90;;;;;;494292;241;27993;-80
2022/10/12 03:24:07;;;;;;;1.80;1.70;;;;;;;;;;494446;241;26261;-80
2022/10/12 03:26:10;;;;;;;1.90;1.80;;;;;;;;;;494241;241;26235;-80
2022/10/12 03:28:12;;;;;;;2.08;1.95;;;;;;;;;;494307;237;26707;-80
2022/10/12 03:30:15;;;;;;;2.20;1.95;;;;;;;;;;494447;238;26789;-80
2022/10/12 03:32:17;;;;;;;1.98;1.87;;;;;;;;;;494301;241;26839;-79
2022/10/12 03:34:20;;;;;;;1.83;1.73;;;;;;;;;;494279;240;26713;-80
2022/10/12 03:36:21;;;;;;;2.10;1.90;;;4.90;99.90;;;;;;494358;241;26916;-79
2022/10/12 03:38:23;;;;;;;2.40;2.20;;;;;;;;;;494430;241;27844;-80
2022/10/12 03:40:24;;;;;;;1.90;1.80;;;4.90;99.90;;;;;;494296;237;26249;-81
2022/10/12 03:42:27;;;;;;;2.20;2.00;;;;;;;;;;494277;241;27361;-80
2022/10/12 03:44:28;;;;;;;5.07;2.00;;;5.00;99.90;;;;;;494257;241;26305;-80
2022/10/12 03:46:29;;;;;;;2.10;1.90;;;5.00;99.90;;;;;;494227;241;27366;-79
2022/10/12 03:48:32;;;;;;;1.87;1.77;;;;;;;;;;494322;241;27460;-80
2022/10/12 03:50:33;;;;;;;2.05;1.90;;;4.90;99.90;;;;;;494445;237;26272;-80
2022/10/12 03:52:35;;;;;;;1.87;1.77;;;;;;;;;;494462;241;27378;-80
2022/10/12 03:54:36;;;;;;;2.12;1.95;;;4.90;99.90;;;;;;494475;241;26229;-80
2022/10/12 03:56:39;;;;;;;2.45;1.83;;;;;;;;;;494191;241;27413;-81
2022/10/12 03:58:40;;;;;;;4.90;2.10;;;4.80;99.90;;;;;;494283;241;26245;-81
2022/10/12 04:00:42;;;;;;;2.12;2.03;;;4.70;99.90;;;;;;494303;237;27447;-80
2022/10/12 04:02:43;;;;;;;1.90;1.80;;;4.70;99.90;;;;;;494304;241;26241;-81
2022/10/12 04:04:45;;;;;;;2.00;1.90;;;4.70;99.90;;;;;;494403;241;27429;-78
2022/10/12 04:06:46;;;;;;;3.62;2.10;;;4.70;99.90;;;;;;494416;241;27346;-79
2022/10/12 04:08:47;;;;;;;1.85;1.75;;;4.80;99.90;;;;;;494438;241;27343;-79
2022/10/12 04:10:50;;;;;;;1.83;1.73;;;;;;;;;;494426;241;28007;-78
2022/10/12 04:12:51;;;;;;;2.53;2.20;;;4.80;99.90;;;;;;494446;241;26232;-79
2022/10/12 04:14:54;;;;;;;2.03;1.87;;;;;;;;;;494318;241;27406;-80
2022/10/12 04:16:56;;;;;;;2.20;2.10;;;4.80;99.90;;;;;;494199;237;26958;-81
2022/10/12 04:18:59;;;;;;;2.42;1.80;;;;;;;;;;494318;241;26233;-79
2022/10/12 04:21:01;;;;;;;2.20;2.10;;;4.80;99.90;;;;;;494458;241;26873;-78
2022/10/12 04:23:04;;;;;;;1.98;1.87;;;;;;;;;;494407;241;26342;-80
2022/10/12 04:25:06;;;;;;;2.17;1.80;;;;;;;;;;494353;241;26332;-79
2022/10/12 04:27:07;;;;;;;1.98;1.87;;;4.80;99.90;;;;;;494216;241;26253;-79
2022/10/12 04:29:09;;;;;;;2.60;2.40;;;4.80;99.90;;;;;;494320;241;27922;-78
2022/10/12 04:31:11;;;;;;;2.20;2.10;;;4.80;99.90;;;;;;494283;241;26296;-78
2022/10/12 04:33:12;;;;;;;2.67;2.47;;;4.70;99.90;;;;;;494427;241;27370;-78
2022/10/12 04:35:13;;;;;;;3.47;2.58;;;4.60;99.90;;;;;;494441;241;27363;-80
2022/10/12 04:37:14;;;;;;;2.85;2.65;;;4.60;99.90;;;;;;494355;240;27437;-78
2022/10/12 04:39:16;;;;;;;2.90;2.65;;;4.50;99.90;;;;;;494438;237;27998;-80
2022/10/12 04:41:17;;;;;;;2.78;2.53;;;4.50;99.90;;;;;;494430;241;27926;-80
2022/10/12 04:43:18;;;;;;;4.93;3.17;;;4.50;99.90;;;;;;494424;241;27362;-81
2022/10/12 04:45:20;;;;;;;4.80;3.10;;;;;;;;;;494414;241;27426;-81
2022/10/12 04:47:22;;;;;;;5.30;3.25;;;4.40;99.90;;;;;;494290;237;26229;-80
2022/10/12 04:49:23;;;;;;;5.40;3.40;;;4.40;99.90;;;;;;494375;240;27358;-79
2022/10/12 04:51:26;;;;;;;7.55;3.87;;;;;;;;;;494323;241;27354;-80
2022/10/12 04:53:26;;;;;;;5.43;3.40;;;4.50;99.90;;;;;;494288;241;26248;-80
2022/10/12 04:55:28;;;;;;;3.80;3.05;;;4.60;99.90;;;;;;494298;241;27460;-80
2022/10/12 04:57:29;;;;;;;6.00;3.50;;;4.70;99.90;;;;;;494242;241;27493;-80
2022/10/12 04:59:32;;;;;;;6.87;3.70;;;;;;;;;;494292;241;27575;-81
2022/10/12 05:01:33;;;;;;;6.35;3.60;;;4.60;99.90;;;;;;494313;240;26240;-81
2022/10/12 05:03:35;;;;;;;6.78;3.12;;;;;;;;;;494451;241;27357;-80
2022/10/12 05:05:36;;;;;;;6.28;3.60;;;5.10;99.90;;;;;;494456;241;26315;-80
2022/10/12 05:07:38;;;;;;;7.15;3.40;;;5.10;99.90;;;;;;494281;237;27374;-78
2022/10/12 05:09:40;;;;;;;5.40;3.05;;;;;;;;;;494470;241;27355;-79
2022/10/12 05:11:43;;;;;;;4.82;3.00;;;;;;;;;;494459;241;26252;-78
2022/10/12 05:13:44;;;;;;;6.55;3.30;;;5.20;99.90;;;;;;494296;241;26252;-79
2022/10/12 05:15:45;;;;;;;6.47;3.50;;;5.30;99.90;;;;;;494454;241;27367;-78
2022/10/12 05:17:46;;;;;;;4.85;2.90;;;5.30;99.90;;;;;;494277;237;27465;-78
2022/10/12 05:19:48;;;;;;;4.22;2.70;;;5.20;99.90;;;;;;494339;241;27466;-78
2022/10/12 05:21:49;;;;;;;5.78;3.35;;;5.20;99.90;;;;;;494450;241;27366;-78
2022/10/12 05:23:50;;;;;;;5.82;3.05;;;5.20;99.90;;;;;;494440;241;27957;-79
2022/10/12 05:25:51;;;;;;;3.92;2.78;;;5.30;99.90;;;;;;494285;237;27449;-79
2022/10/12 05:27:53;;;;;;;4.45;2.80;;;5.30;99.90;;;;;;494430;241;27452;-78
2022/10/12 05:29:54;;;;;;;5.12;3.30;;;5.30;99.90;;;;;;494456;241;27449;-80
2022/10/12 05:31:55;;;;;;;3.45;3.00;;;5.40;99.90;;;;;;494441;241;27418;-81
2022/10/12 05:33:56;;;;;;;4.65;3.25;;;5.40;99.90;;;;;;494316;241;27358;-80
2022/10/12 05:35:58;;;;;;;4.57;2.90;;;5.40;99.90;;;;;;494461;240;27362;-79
2022/10/12 05:37:59;;;;;;;4.75;3.35;;;5.50;99.90;;;;;;494413;241;27345;-80
2022/10/12 05:40:00;;;;;;;4.18;2.95;;;5.50;99.90;;;;;;494479;241;27377;-77
2022/10/12 05:42:01;;;;;;;4.28;2.95;;;5.60;99.90;;;;;;494342;241;27947;-80
2022/10/12 05:44:03;;;;;;;3.47;3.10;;;5.60;99.90;;;;;;494349;241;27945;-79
2022/10/12 05:46:04;;;;;;;2.92;2.72;;;5.60;99.90;;;;;;494313;241;27385;-78
2022/10/12 05:48:05;;;;;;;2.92;2.62;;;5.60;99.90;;;;;;494279;241;27457;-79
2022/10/12 05:50:06;;;;;;;3.45;3.12;;;5.60;99.90;;;;;;494480;241;27402;-79
2022/10/12 05:52:08;;;;;;;2.85;2.62;;;5.60;99.90;;;;;;494324;241;27400;-79
2022/10/12 05:54:09;;;;;;;2.85;2.55;;;5.50;99.90;;;;;;494316;241;27377;-78
2022/10/12 05:56:10;;;;;;;3.53;2.20;;;5.60;99.90;;;;;;494389;241;27374;-79
2022/10/12 05:58:11;;;;;;;2.67;2.37;;;5.60;99.90;;;;;;494302;241;27958;-78
2022/10/12 06:00:13;;;;;;;3.17;2.50;;;5.60;99.90;;;;;;494471;241;27911;-79
2022/10/12 06:02:14;;;;;;;2.72;1.90;;;5.60;99.90;;;;;;494321;241;27445;-79
2022/10/12 06:04:15;;;;;;;3.30;2.53;;;5.60;99.90;;;;;;494446;241;27453;-79
2022/10/12 06:06:16;;;;;;;3.42;2.40;;;5.60;99.90;;;;;;494262;241;27402;-79
2022/10/12 06:08:18;;;;;;;2.87;2.60;;;5.60;99.90;;;;;;494422;237;27351;-79
2022/10/12 06:10:19;;;;;;;2.97;2.65;;;5.60;99.90;;;;;;494372;241;27378;-79
2022/10/12 06:12:20;;;;;;;2.42;2.20;;;5.60;99.90;;;;;;494413;241;27355;-80
2022/10/12 06:14:21;;;;;;;2.10;1.90;;;5.60;99.90;;;;;;494427;241;27426;-80
2022/10/12 06:16:23;;;;;;;4.53;2.47;;;5.50;99.90;;;;;;494402;241;27863;-78
2022/10/12 06:18:24;;;;;;;2.35;2.15;;;5.40;99.90;;;;;;494226;240;27346;-79
2022/10/12 06:20:25;;;;;;;3.00;2.20;;;5.40;99.90;;;;;;494477;241;27351;-78
2022/10/12 06:22:26;;;;;;;2.33;2.12;;;5.30;99.90;;;;;;494462;241;27365;-79
2022/10/12 06:24:28;;;;;;;2.30;2.10;;;5.20;99.90;;;;;;494473;241;27441;-78
2022/10/12 06:26:29;;;;;;;3.17;2.05;;;5.20;99.90;;;;;;494405;241;27373;-79
2022/10/12 06:28:30;;;;;;;4.22;1.90;;;5.20;99.90;;;;;;494454;241;27374;-79
2022/10/12 06:30:31;;;;;;;2.33;2.12;;;5.20;99.90;;;;;;494309;241;27463;-79
2022/10/12 06:32:33;;;;;;;6.03;2.40;;;5.20;99.90;;;;;;494284;241;27930;-79
2022/10/12 06:34:34;;;;;;;2.40;2.20;;;5.30;99.90;;;;;;494479;241;27863;-78
2022/10/12 06:36:35;;;;;;;3.33;2.28;;;5.30;99.90;;;;;;494317;237;27378;-80
2022/10/12 06:38:36;;;;;;;2.20;2.10;;;5.40;99.90;;;;;;494615;241;27327;-78
2022/10/12 06:40:38;;;;;;;2.30;2.15;;;5.40;99.90;;;;;;494611;237;27370;-79
2022/10/12 06:42:39;;;;;;;2.40;2.10;;;5.60;99.90;;;;;;494538;240;27387;-79
2022/10/12 06:44:40;;;;;;;2.40;2.20;;;5.70;99.90;;;;;;494578;241;27338;-79
2022/10/12 06:46:42;;;;;;;2.53;2.35;;;5.90;99.90;;;;;;494526;241;27449;-79
2022/10/12 06:48:43;;;;;;;2.30;2.10;;;6.00;99.90;;;;;;494478;241;27351;-80
2022/10/12 06:50:44;;;;;;;2.33;2.17;;;6.20;99.90;;;;;;494414;241;27941;-78
2022/10/12 06:52:45;;;;;;;3.03;2.35;;;6.30;99.90;;;;;;494437;241;27372;-79
2022/10/12 06:54:47;;;;;;;2.92;2.62;;;6.30;99.90;;;;;;494265;237;27417;-79
2022/10/12 06:56:48;;;;;;;2.70;2.37;;;6.40;99.90;;;;;;494212;241;27468;-79
2022/10/12 06:58:49;;;;;;;2.40;2.30;;;6.40;99.90;;;;;;494423;241;27362;-79
2022/10/12 07:00:51;;;;;;;2.85;2.30;;;6.40;99.90;;;;;;494432;237;27370;-79
2022/10/12 07:02:52;;;;;;;3.37;3.08;;;6.40;99.90;;;;;;494478;241;27375;-80
2022/10/12 07:04:53;;;;;;;2.60;2.40;;;6.50;99.90;;;;;;494312;241;27866;-80
2022/10/12 07:06:54;;;;;;;2.90;2.65;;;6.50;99.90;;;;;;494218;241;27441;-78
2022/10/12 07:08:55;;;;;;;2.65;2.25;;;6.60;99.90;;;;;;494245;241;27457;-80
2022/10/12 07:10:57;;;;;;;2.00;1.90;;;6.70;99.90;;;;;;494397;237;27436;-79
2022/10/12 07:12:58;;;;;;;2.42;2.20;;;6.70;99.90;;;;;;494281;241;27441;-78
2022/10/12 07:14:59;;;;;;;2.47;2.27;;;6.70;99.90;;;;;;494296;241;27474;-79
2022/10/12 07:17:00;;;;;;;2.30;2.20;;;6.70;99.90;;;;;;494227;241;28388;-79
2022/10/12 07:19:02;;;;;;;3.37;2.40;;;6.70;99.90;;;;;;494403;241;28039;-78
2022/10/12 07:21:03;;;;;;;2.85;2.65;;;6.80;99.90;;;;;;494285;241;27398;-79
2022/10/12 07:23:04;;;;;;;3.12;2.60;;;6.80;99.90;;;;;;494252;241;27485;-79
2022/10/12 07:25:05;;;;;;;2.80;2.60;;;6.80;99.90;;;;;;494214;241;27595;-80
2022/10/12 07:27:07;;;;;;;2.53;2.33;;;6.90;99.90;;;;;;494315;237;28700;-79
2022/10/12 07:29:08;;;;;;;2.43;2.20;;;6.90;99.90;;;;;;494425;241;27473;-79
2022/10/12 07:31:09;;;;;;;2.20;2.10;;;7.00;99.90;;;;;;494413;241;28394;-79
2022/10/12 07:33:10;;;;;;;2.60;2.40;;;7.00;99.90;;;;;;494265;241;28223;-79
2022/10/12 07:35:12;;;;;;;3.47;2.80;;;7.10;99.90;;;;;;494423;241;29088;-79
2022/10/12 07:37:14;;;;;;;2.30;2.10;;;7.20;99.90;;;;;;494268;237;29182;-79
2022/10/12 07:39:14;;;;;;;2.83;2.63;;;7.20;99.90;;;;;;494370;241;29258;-79
2022/10/12 07:41:15;;;;;;;2.97;2.60;;;7.20;99.90;;;;;;494448;241;28082;-79
2022/10/12 07:43:17;;;;;;;3.47;2.70;;;7.30;99.90;;;;;;494435;241;27410;-79
2022/10/12 07:45:18;;;;;;;2.65;2.45;;;7.30;99.90;;;;;;494427;241;27370;-79
2022/10/12 07:47:19;;;;;;;2.72;2.50;;;7.40;99.90;;;;;;494206;241;27361;-79
2022/10/12 07:49:20;;;;;;;2.40;2.27;;;7.40;99.90;;;;;;494279;241;27484;-79
2022/10/12 07:51:22;;;;;;;3.10;2.53;;;7.40;99.90;;;;;;494283;241;27563;-79
2022/10/12 07:53:23;;;;;;;3.00;2.70;;;7.40;99.90;;;;;;494263;241;28160;-79
2022/10/12 07:55:24;;;;;;;2.90;2.60;;;7.40;99.90;;;;;;494307;241;28293;-80
2022/10/12 07:57:25;;;;;;;2.73;2.53;;;7.50;99.90;;;;;;494292;237;28508;-80
2022/10/12 07:59:27;;;;;;;2.60;2.40;;;7.50;99.90;;;;;;494427;240;28417;-79
2022/10/12 08:01:32;;;;;;;2.30;2.10;;;7.60;99.90;;;;;;494442;240;27802;-80
2022/10/12 08:03:29;;;;;;;2.53;2.33;;;7.70;99.90;;;;;;494102;241;27481;-78
2022/10/12 08:05:30;;;;;;;2.53;2.30;;;7.70;99.90;;;;;;494410;241;27458;-78
2022/10/12 08:07:32;;;;;;;2.87;2.63;;;7.80;99.90;;;;;;494329;241;27544;-79
2022/10/12 08:09:35;;;;;;;2.83;2.60;;;7.90;99.90;;;;;;494273;241;28807;-79
2022/10/12 08:11:34;;;;;;;2.70;2.50;;;8.00;99.90;;;;;;494177;241;27916;-79
2022/10/12 08:13:35;;;;;;;2.30;2.20;;;8.20;99.90;;;;;;494416;241;27826;-79
2022/10/12 08:15:37;;;;;;;5.30;2.80;;;8.40;99.90;;;;;;494462;241;28225;-79
2022/10/12 08:17:38;;;;;;;3.40;3.10;;;8.50;99.90;;;;;;494395;241;27580;-80
2022/10/12 08:19:39;;;;;;;3.53;3.33;;;8.70;99.90;;;;;;494456;241;27652;-79
2022/10/12 08:21:41;;;;;;;3.17;2.97;;;8.90;99.90;;;;;;494644;241;27820;-79
2022/10/12 08:23:43;;;;;;;5.13;3.10;;;9.10;99.90;;;;;;494674;241;28393;-80
2022/10/12 08:25:43;;;;;;;2.50;2.30;;;9.20;99.90;;;;;;494446;237;28397;-79
2022/10/12 08:27:44;;;;;;;3.10;2.80;;;9.30;99.90;;;;;;494495;237;28081;-79
2022/10/12 08:29:45;;;;;;;5.67;2.70;;;9.40;99.90;;;;;;494645;241;28656;-79
2022/10/12 08:31:49;;;;;;;2.70;2.40;;;9.50;99.90;;;;;;494494;241;27924;-79
2022/10/12 08:33:48;;;;;;;4.90;2.57;;;9.60;99.90;;;;;;494473;237;27933;-79
2022/10/12 08:35:49;;;;;;;2.67;2.47;;;9.70;99.90;;;;;;494581;241;27956;-79
2022/10/12 08:37:50;;;;;;;4.47;2.50;;;9.80;99.90;;;;;;494550;241;27865;-78
2022/10/12 08:39:52;;;;;;;4.30;2.63;;;9.90;99.90;;;;;;494615;241;27973;-79
2022/10/12 08:41:53;;;;;;;2.50;2.30;;;10.10;99.90;;;;;;494498;241;27827;-79
2022/10/12 08:43:54;;;;;;;2.40;2.20;;;10.20;99.90;;;;;;494443;241;27845;-79
2022/10/12 08:45:55;;;;;;;2.20;2.10;;;10.30;99.90;;;;;;494484;241;27858;-79
2022/10/12 08:47:57;;;;;;;3.30;2.50;;;10.30;99.90;;;;;;494439;237;27693;-80
2022/10/12 08:49:58;;;;;;;2.70;2.30;;;10.40;99.90;;;;;;494473;241;27824;-80
2022/10/12 08:51:59;;;;;;;3.37;2.33;;;10.50;99.90;;;;;;494591;241;27814;-79
2022/10/12 08:54:00;;;;;;;2.60;2.10;;;10.60;99.90;;;;;;494436;241;28324;-80
2022/10/12 08:56:02;;;;;;;2.60;2.17;;;10.60;99.90;;;;;;494477;241;28193;-79
2022/10/12 08:58:03;;;;;;;4.23;2.50;;;10.70;99.90;;;;;;494571;241;28168;-79
2022/10/12 09:00:04;;;;;;;2.83;2.53;;;10.80;99.90;;;;;;494547;241;27847;-80
2022/10/12 09:02:05;;;;;;;2.67;2.10;;;10.90;99.90;;;;;;494611;241;27953;-79
2022/10/12 09:04:07;;;;;;;2.50;2.30;;;10.90;99.90;;;;;;494422;239;27947;-80
2022/10/12 09:06:08;;;;;;;2.60;2.40;;;11.00;99.90;;;;;;494516;241;28072;-79
2022/10/12 09:08:09;;;;;;;4.77;2.30;;;10.90;99.90;;;;;;494431;240;27814;-80
2022/10/12 09:10:10;;;;;;;3.83;2.60;;;10.90;99.90;;;;;;494449;241;28097;-80
2022/10/12 09:12:12;;;;;;;2.50;2.00;;;11.00;99.90;;;;;;494568;241;28001;-79
2022/10/12 09:14:13;;;;;;;2.50;2.30;;;11.00;99.90;;;;;;494533;241;27981;-80
2022/10/12 09:16:14;;;;;;;2.63;2.40;;;11.10;99.90;;;;;;494504;241;28607;-79
2022/10/12 09:18:16;;;;;;;3.90;2.10;;;11.10;99.90;;;;;;494529;237;28450;-80
2022/10/12 09:20:17;;;;;;;3.67;2.70;;;11.40;99.90;;;;;;494426;240;27927;-79
2022/10/12 09:22:18;;;;;;;3.53;2.40;;;11.60;99.90;;;;;;494417;241;28063;-80
2022/10/12 09:24:19;;;;;;;4.90;2.80;;;11.70;99.90;;;;;;494429;241;27988;-80
2022/10/12 09:26:20;;;;;;;3.43;2.63;;;11.70;99.90;;;;;;494486;241;28765;-79
2022/10/12 09:28:24;;;;;;;3.03;2.47;;;;;;;;;;491995;239;35977;-79
2022/10/12 09:30:29;;;;;;;3.23;2.70;;;;;;;;;;494529;241;27027;-80
2022/10/12 09:32:30;;;;;;;5.73;2.90;;;11.50;99.90;;;;;;494441;241;26946;-80
2022/10/12 09:34:33;;;;;;;3.00;2.80;;;11.40;99.90;;;;;;494532;241;28425;-82
2022/10/12 09:36:39;;;;;;;4.83;3.00;;;;;;;;;;494500;237;26974;-79
2022/10/12 09:38:40;;;;;;;4.80;2.90;;;11.40;99.90;;;;;;494419;241;26962;-79
2022/10/12 09:40:41;;;;;;;10.70;3.40;;;11.50;99.90;;;;;;494398;241;27942;-79
2022/10/12 09:42:42;;;;;;;5.67;3.17;;;11.50;99.90;;;;;;494508;241;27985;-79
2022/10/12 09:44:44;;;;;;;4.13;3.00;;;11.40;99.90;;;;;;494405;241;28547;-79
2022/10/12 09:46:45;;;;;;;4.60;3.13;;;11.50;99.90;;;;;;494453;241;28465;-80
2022/10/12 09:48:46;;;;;;;4.70;3.57;;;11.60;99.90;;;;;;494522;241;28163;-80
2022/10/12 09:50:47;;;;;;;4.83;3.10;;;11.70;99.90;;;;;;494387;241;28622;-80
2022/10/12 09:52:49;;;;;;;3.43;3.13;;;11.70;99.90;;;;;;494389;241;28172;-79
2022/10/12 09:54:50;;;;;;;3.47;3.17;;;11.80;99.90;;;;;;494373;241;27980;-80
2022/10/12 09:56:53;;;;;;;3.60;3.30;;;11.90;99.90;;;;;;494317;241;28098;-79
2022/10/12 09:58:52;;;;;;;4.10;3.30;;;12.10;99.90;;;;;;494448;241;27888;-80
2022/10/12 10:00:54;;;;;;;4.17;2.83;;;12.20;99.90;;;;;;494373;241;28059;-80
2022/10/12 10:02:55;;;;;;;19.17;3.43;;;12.30;99.90;;;;;;494505;241;27942;-79
2022/10/12 10:04:56;;;;;;;3.77;3.30;;;12.30;99.90;;;;;;494507;241;28280;-79
2022/10/12 10:06:57;;;;;;;4.30;3.03;;;12.40;99.90;;;;;;494336;237;28508;-79
2022/10/12 10:08:59;;;;;;;2.80;2.60;;;12.50;99.90;;;;;;494386;241;28438;-80
2022/10/12 10:11:00;;;;;;;4.73;3.50;;;12.60;99.90;;;;;;494349;241;28409;-78
2022/10/12 10:13:04;;;;;;;4.17;3.10;;;12.50;99.90;;;;;;494389;241;28832;-79
2022/10/12 10:15:04;;;;;;;3.63;2.90;;;;;;;;;;494215;241;27929;-80
2022/10/12 10:17:05;;;;;;;2.50;2.30;;;12.60;99.90;;;;;;494432;241;26465;-80
2022/10/12 10:19:06;;;;;;;5.47;3.10;;;12.80;99.90;;;;;;494393;241;28183;-80
2022/10/12 10:21:09;;;;;;;3.53;2.73;;;;;;;;;;494515;241;28731;-80
2022/10/12 10:23:10;;;;;;;2.77;2.57;;;12.50;99.90;;;;;;494507;241;26485;-79
2022/10/12 10:25:11;;;;;;;4.20;3.17;;;12.90;99.90;;;;;;494391;241;28295;-80
2022/10/12 10:27:12;;;;;;;4.80;3.17;;;12.90;99.90;;;;;;494315;237;28264;-79
2022/10/12 10:29:14;;;;;;;3.43;3.10;;;12.90;99.90;;;;;;494342;241;28270;-80
2022/10/12 10:31:16;;;;;;;4.20;3.17;;;13.00;99.90;;;;;;494436;241;28313;-80
2022/10/12 10:33:16;;;;;;;5.43;3.90;;;13.00;99.90;;;;;;494568;241;28339;-79
2022/10/12 10:35:17;;;;;;;3.63;3.20;;;13.00;99.90;;;;;;494345;241;28266;-79
2022/10/12 10:37:18;;;;;;;3.47;3.17;;;13.00;99.90;;;;;;494351;237;28383;-80
2022/10/12 10:39:20;;;;;;;6.80;3.73;;;13.10;99.90;;;;;;494336;241;28767;-80
2022/10/12 10:41:21;;;;;;;6.47;3.57;;;13.00;99.90;;;;;;494362;241;28268;-80
2022/10/12 10:43:22;;;;;;;4.20;3.10;;;13.10;99.90;;;;;;494348;241;28058;-79
2022/10/12 10:45:24;;;;;;;4.57;3.20;;;13.20;99.90;;;;;;494353;241;28076;-79
2022/10/12 10:47:25;;;;;;;4.23;3.57;;;13.20;99.90;;;;;;494355;237;28223;-79
2022/10/12 10:49:26;;;;;;;4.13;3.60;;;13.40;99.90;;;;;;494339;241;28191;-79
2022/10/12 10:51:27;;;;;;;7.30;4.00;;;13.50;99.90;;;;;;494499;241;28387;-80
2022/10/12 10:53:29;;;;;;;7.07;3.43;;;13.50;99.90;;;;;;494480;241;28130;-80
2022/10/12 10:55:30;;;;;;;4.87;3.73;;;13.60;99.90;;;;;;494466;241;28036;-79
2022/10/12 10:57:31;;;;;;;8.40;4.10;;;13.60;99.90;;;;;;494326;237;28851;-80
2022/10/12 10:59:32;;;;;;;4.60;3.33;;;13.50;99.90;;;;;;494362;241;28759;-79
2022/10/12 11:01:34;;;;;;;5.87;3.97;;;13.50;99.90;;;;;;494339;241;28630;-80
2022/10/12 11:03:35;;;;;;;5.23;3.63;;;13.50;99.90;;;;;;494327;241;28859;-80
2022/10/12 11:05:36;;;;;;;3.73;3.27;;;13.60;99.90;;;;;;494497;241;28157;-79
2022/10/12 11:07:37;;;;;;;4.30;3.70;;;13.80;99.90;;;;;;494429;241;28264;-80
2022/10/12 11:09:39;;;;;;;7.30;3.63;;;13.90;99.90;;;;;;494281;241;28804;-79